Time;durP1;ratioP1;P1;durP2;ratioP2;P2;SDS_P1;SDS_P2;PMS_P1;PMS_P2;Temp;Humidity;BMP_temperature;BMP_pressure;BME280_temperature;BME280_humidity;BME280_pressure;Samples;Min_cycle;Max_cycle;Signal;HPM_P1;HPM_P2
2023/09/24 00:00:53;;;;;;;6.80;2.90;;;12.60;99.90;;;;;;5014367;28;20038;-57
2023/09/24 00:03:19;;;;;;;9.15;3.03;;;12.60;99.90;;;;;;4997367;28;20049;-57
2023/09/24 00:05:46;;;;;;;6.82;3.22;;;12.60;99.90;;;;;;5012183;28;20036;-56
2023/09/24 00:08:12;;;;;;;4.78;2.53;;;12.60;99.90;;;;;;5014655;28;20042;-56
2023/09/24 00:10:38;;;;;;;7.90;3.00;;;12.60;99.90;;;;;;5013254;28;20118;-56
2023/09/24 00:13:04;;;;;;;7.68;3.00;;;12.60;99.90;;;;;;5011159;28;20033;-57
2023/09/24 00:15:32;;;;;;;6.57;2.78;;;12.60;99.90;;;;;;4998689;28;20057;-55
2023/09/24 00:17:59;;;;;;;9.65;2.90;;;12.60;99.90;;;;;;5009681;28;20065;-56
2023/09/24 00:20:25;;;;;;;6.82;3.10;;;12.60;99.90;;;;;;5013725;28;20041;-57
2023/09/24 00:22:51;;;;;;;16.67;3.75;;;12.50;99.90;;;;;;4997324;28;20532;-57
2023/09/24 00:25:17;;;;;;;5.90;2.40;;;12.50;99.90;;;;;;5011487;28;20144;-57
2023/09/24 00:27:43;;;;;;;8.65;2.55;;;12.50;99.90;;;;;;4999640;28;20489;-56
2023/09/24 00:30:09;;;;;;;7.30;3.22;;;12.40;99.90;;;;;;5013839;28;20037;-57
2023/09/24 00:32:35;;;;;;;6.80;2.80;;;12.40;99.90;;;;;;5013553;28;20641;-56
2023/09/24 00:35:02;;;;;;;5.78;2.38;;;12.30;99.90;;;;;;5011969;28;20065;-57
2023/09/24 00:37:27;;;;;;;9.35;2.90;;;12.30;99.90;;;;;;5007375;28;20505;-57
2023/09/24 00:39:53;;;;;;;6.25;2.78;;;12.30;99.90;;;;;;5013602;28;20048;-57
2023/09/24 00:42:19;;;;;;;3.63;2.40;;;12.20;99.90;;;;;;5011419;28;20568;-56
2023/09/24 00:44:45;;;;;;;5.38;2.20;;;12.20;99.90;;;;;;5011970;28;20097;-57
2023/09/24 00:47:12;;;;;;;7.93;2.80;;;12.10;99.90;;;;;;5010379;28;20050;-56
2023/09/24 00:49:38;;;;;;;8.57;2.90;;;12.10;99.90;;;;;;5005831;28;20124;-57
2023/09/24 00:52:04;;;;;;;8.35;2.80;;;12.00;99.90;;;;;;5013866;28;20033;-57
2023/09/24 00:54:31;;;;;;;8.93;3.08;;;12.10;99.90;;;;;;5011768;28;20041;-57
2023/09/24 00:56:58;;;;;;;5.70;2.72;;;12.00;99.90;;;;;;4997597;28;20457;-57
2023/09/24 00:59:27;;;;;;;10.10;2.67;;;12.00;99.90;;;;;;5011691;28;20064;-57
2023/09/24 01:01:53;;;;;;;4.90;2.72;;;12.00;99.90;;;;;;5009682;28;20069;-56
2023/09/24 01:04:19;;;;;;;5.07;2.75;;;11.90;99.90;;;;;;5012070;28;20229;-56
2023/09/24 01:06:45;;;;;;;6.40;2.67;;;11.90;99.90;;;;;;5012268;28;20038;-56
2023/09/24 01:09:12;;;;;;;9.00;3.15;;;11.80;99.90;;;;;;4993357;28;20037;-57
2023/09/24 01:11:38;;;;;;;4.85;3.00;;;11.80;99.90;;;;;;5008190;28;20084;-56
2023/09/24 01:14:05;;;;;;;6.57;2.92;;;11.80;99.90;;;;;;5004879;28;20104;-56
2023/09/24 01:16:32;;;;;;;9.27;3.60;;;11.70;99.90;;;;;;5012465;28;20044;-57
2023/09/24 01:18:58;;;;;;;6.18;3.35;;;11.80;99.90;;;;;;5008561;28;20143;-57
2023/09/24 01:21:27;;;;;;;6.25;3.17;;;11.80;99.90;;;;;;5010111;28;20089;-56
2023/09/24 01:23:54;;;;;;;5.15;3.28;;;11.70;99.90;;;;;;4994238;28;20048;-57
2023/09/24 01:26:24;;;;;;;8.90;3.05;;;11.70;99.90;;;;;;4995284;28;20524;-56
2023/09/24 01:28:51;;;;;;;7.93;3.70;;;11.80;99.90;;;;;;5011949;28;20050;-57
2023/09/24 01:31:18;;;;;;;7.22;3.60;;;11.80;99.90;;;;;;5013005;28;20387;-56
2023/09/24 01:33:44;;;;;;;12.93;4.10;;;11.80;99.90;;;;;;5000697;28;20171;-56
2023/09/24 01:36:10;;;;;;;8.02;3.00;;;11.70;99.90;;;;;;5009104;28;20132;-55
2023/09/24 01:38:40;;;;;;;9.43;3.30;;;11.70;99.90;;;;;;4996195;28;20256;-57
2023/09/24 01:41:10;;;;;;;6.15;3.15;;;11.70;99.90;;;;;;5010040;28;20053;-57
2023/09/24 01:43:42;;;;;;;8.70;3.65;;;11.70;99.90;;;;;;4993943;28;20576;-56
2023/09/24 01:46:09;;;;;;;11.20;3.03;;;11.70;99.90;;;;;;4994303;28;20053;-56
2023/09/24 01:48:35;;;;;;;4.25;2.80;;;11.70;99.90;;;;;;4996671;28;20050;-57
2023/09/24 01:51:11;;;;;;;10.27;3.05;;;11.70;99.90;;;;;;4996716;28;20036;-55
2023/09/24 01:53:37;;;;;;;8.88;2.90;;;11.70;99.90;;;;;;5009576;28;20121;-56
2023/09/24 01:56:04;;;;;;;10.10;3.25;;;11.70;99.90;;;;;;5010990;28;20049;-57
2023/09/24 01:58:31;;;;;;;6.78;3.30;;;11.70;99.90;;;;;;4995148;28;20049;-57
2023/09/24 02:00:57;;;;;;;8.30;3.30;;;11.60;99.90;;;;;;4996568;28;20461;-56
2023/09/24 02:03:22;;;;;;;7.80;2.90;;;11.70;99.90;;;;;;5002170;28;20109;-56
2023/09/24 02:05:48;;;;;;;8.57;3.15;;;11.70;99.90;;;;;;5005626;28;20091;-56
2023/09/24 02:08:15;;;;;;;5.63;3.13;;;11.60;99.90;;;;;;5007795;28;20497;-57
2023/09/24 02:10:41;;;;;;;8.27;3.28;;;11.70;99.90;;;;;;5012053;28;20045;-57
2023/09/24 02:13:12;;;;;;;6.15;3.15;;;11.70;99.90;;;;;;5006449;28;21195;-56
2023/09/24 02:15:38;;;;;;;6.22;2.90;;;11.60;99.90;;;;;;5012504;28;20048;-57
2023/09/24 02:18:05;;;;;;;7.63;3.08;;;11.60;99.90;;;;;;5009908;28;20116;-56
2023/09/24 02:22:59;;;;;;;7.38;2.75;;;11.60;99.90;;;;;;4994132;28;20058;-56
2023/09/24 02:25:25;;;;;;;9.15;3.00;;;11.60;99.90;;;;;;5011683;28;20071;-56
2023/09/24 02:27:52;;;;;;;6.72;3.03;;;11.60;99.90;;;;;;5007343;28;20472;-56
2023/09/24 02:30:19;;;;;;;6.93;3.10;;;11.50;99.90;;;;;;4994910;28;20512;-56
2023/09/24 02:32:46;;;;;;;7.03;2.72;;;11.60;99.90;;;;;;4980651;28;20515;-56
2023/09/24 02:35:13;;;;;;;5.95;2.67;;;11.60;99.90;;;;;;5011149;28;20528;-56
2023/09/24 02:37:50;;;;;;;8.68;2.67;;;11.60;99.90;;;;;;5012031;28;20493;-57
2023/09/24 02:40:30;;;;;;;5.32;2.80;;;11.60;99.90;;;;;;4998732;28;20161;-57
2023/09/24 02:43:00;;;;;;;8.55;3.03;;;11.60;99.90;;;;;;5010941;28;20060;-56
2023/09/24 02:45:27;;;;;;;7.57;2.83;;;11.60;99.90;;;;;;5022395;28;20050;-57
2023/09/24 02:47:53;;;;;;;6.57;3.20;;;11.60;99.90;;;;;;5012310;28;20180;-55
2023/09/24 02:50:24;;;;;;;5.85;2.90;;;11.60;99.90;;;;;;5011948;28;20396;-55
2023/09/24 02:52:55;;;;;;;9.00;3.15;;;11.60;99.90;;;;;;5010422;28;20041;-56
2023/09/24 02:55:22;;;;;;;10.20;2.75;;;11.60;99.90;;;;;;5022684;28;20046;-56
2023/09/24 02:57:50;;;;;;;9.55;3.28;;;11.60;99.90;;;;;;5009323;28;20037;-57
2023/09/24 03:00:26;;;;;;;6.18;3.00;;;11.60;99.90;;;;;;5014869;28;20101;-57
2023/09/24 03:02:59;;;;;;;4.50;2.83;;;11.60;99.90;;;;;;5014828;28;20555;-57
2023/09/24 03:05:26;;;;;;;6.22;2.95;;;11.60;99.90;;;;;;4998337;28;20059;-57
2023/09/24 03:07:56;;;;;;;5.82;2.83;;;11.60;99.90;;;;;;4999967;28;20556;-55
2023/09/24 03:10:23;;;;;;;7.63;3.20;;;11.60;99.90;;;;;;5002591;28;20099;-55
2023/09/24 03:12:49;;;;;;;8.45;3.45;;;11.60;99.90;;;;;;5013549;28;20061;-56
2023/09/24 03:15:15;;;;;;;6.68;3.25;;;11.50;99.90;;;;;;5013933;28;20823;-55
2023/09/24 03:17:43;;;;;;;6.10;3.25;;;11.60;99.90;;;;;;5016900;28;20620;-57
2023/09/24 03:20:17;;;;;;;6.03;3.30;;;11.50;99.90;;;;;;5018550;28;20405;-57
2023/09/24 03:22:51;;;;;;;7.00;3.22;;;11.60;99.90;;;;;;4998757;28;20136;-57
2023/09/24 03:25:24;;;;;;;5.78;3.30;;;11.60;99.90;;;;;;5016342;28;20725;-57
2023/09/24 03:27:52;;;;;;;7.38;3.30;;;11.60;99.90;;;;;;4993295;28;20049;-56
2023/09/24 03:30:18;;;;;;;9.30;3.70;;;11.60;99.90;;;;;;5001759;28;20696;-56
2023/09/24 03:32:45;;;;;;;6.95;3.92;;;11.60;99.90;;;;;;5014184;28;20125;-57
2023/09/24 03:35:13;;;;;;;6.35;4.13;;;11.60;99.90;;;;;;5015522;28;20049;-56
2023/09/24 03:37:43;;;;;;;6.20;3.88;;;11.70;99.90;;;;;;5003274;28;20503;-57
2023/09/24 03:40:12;;;;;;;4.70;3.85;;;11.70;99.90;;;;;;5013996;28;20095;-56
2023/09/24 03:42:38;;;;;;;9.35;4.30;;;11.70;99.90;;;;;;5011420;28;20406;-56
2023/09/24 03:45:13;;;;;;;9.35;4.15;;;11.70;99.90;;;;;;5014417;28;20062;-56
2023/09/24 03:47:40;;;;;;;5.78;3.92;;;11.70;99.90;;;;;;5010151;28;20152;-57
2023/09/24 03:50:09;;;;;;;7.38;4.10;;;11.70;99.90;;;;;;5030489;28;20382;-55
2023/09/24 03:52:37;;;;;;;8.52;4.40;;;11.70;99.90;;;;;;5012788;28;20064;-56
2023/09/24 03:55:04;;;;;;;7.28;3.90;;;11.70;99.90;;;;;;5014188;28;20046;-56
2023/09/24 03:57:30;;;;;;;9.70;4.28;;;11.70;99.90;;;;;;5011048;28;20540;-55
2023/09/24 03:59:57;;;;;;;9.93;4.30;;;11.70;99.90;;;;;;4978914;28;20044;-56
2023/09/24 04:02:24;;;;;;;5.55;4.25;;;11.70;99.90;;;;;;5014343;28;20104;-55
2023/09/24 04:04:50;;;;;;;7.28;4.32;;;11.70;99.90;;;;;;5015127;28;20039;-55
2023/09/24 04:07:20;;;;;;;7.18;4.28;;;11.70;99.90;;;;;;5011767;28;20592;-57
2023/09/24 04:09:46;;;;;;;6.88;4.63;;;11.60;99.90;;;;;;5013796;28;20425;-55
2023/09/24 04:12:15;;;;;;;7.45;4.35;;;11.60;99.90;;;;;;5015297;28;20038;-56
2023/09/24 04:14:40;;;;;;;6.95;4.45;;;11.60;99.90;;;;;;5011507;28;20042;-56
2023/09/24 04:17:06;;;;;;;8.70;4.75;;;11.50;99.90;;;;;;5014997;28;20084;-57
2023/09/24 04:19:33;;;;;;;6.55;4.35;;;11.50;99.90;;;;;;4995192;28;20037;-56
2023/09/24 04:21:59;;;;;;;9.48;5.32;;;11.50;99.90;;;;;;5013394;28;20421;-57
2023/09/24 04:24:26;;;;;;;9.05;4.88;;;11.50;99.90;;;;;;5010373;28;20056;-57
2023/09/24 04:26:53;;;;;;;7.90;5.43;;;11.50;99.90;;;;;;5011867;28;20041;-57
2023/09/24 04:29:19;;;;;;;8.18;5.07;;;11.50;99.90;;;;;;5015467;28;20040;-55
2023/09/24 04:31:45;;;;;;;8.35;5.47;;;11.40;99.90;;;;;;5012796;28;20046;-54
2023/09/24 04:34:12;;;;;;;7.57;5.38;;;11.40;99.90;;;;;;5012421;28;20653;-56
2023/09/24 04:36:42;;;;;;;9.82;5.90;;;11.30;99.90;;;;;;5013568;28;20190;-57
2023/09/24 04:39:11;;;;;;;11.10;6.25;;;11.30;99.90;;;;;;5011583;28;20041;-56
2023/09/24 04:41:43;;;;;;;9.27;6.07;;;11.30;99.90;;;;;;5013368;28;20046;-55
2023/09/24 04:44:09;;;;;;;8.75;6.53;;;11.30;99.90;;;;;;5011057;28;20092;-56
2023/09/24 04:46:35;;;;;;;11.85;7.00;;;11.30;99.90;;;;;;5011682;28;20136;-56
2023/09/24 04:49:05;;;;;;;9.10;6.70;;;11.30;99.90;;;;;;5011901;28;20049;-55
2023/09/24 04:51:32;;;;;;;12.23;6.22;;;11.20;99.90;;;;;;5011295;28;20037;-55
2023/09/24 04:54:00;;;;;;;11.07;6.90;;;11.20;99.90;;;;;;5024656;28;20077;-57
2023/09/24 04:56:27;;;;;;;10.40;6.60;;;11.20;99.90;;;;;;4993001;28;20161;-57
2023/09/24 04:58:52;;;;;;;9.95;6.38;;;11.20;99.90;;;;;;5010659;28;20038;-57
2023/09/24 05:01:18;;;;;;;11.25;6.72;;;11.10;99.90;;;;;;5010299;28;20096;-57
2023/09/24 05:03:44;;;;;;;8.52;6.13;;;11.10;99.90;;;;;;5013226;28;20040;-56
2023/09/24 05:06:09;;;;;;;12.95;6.57;;;11.10;99.90;;;;;;5010940;28;20036;-57
2023/09/24 05:08:35;;;;;;;13.07;6.53;;;11.10;99.90;;;;;;5011615;28;20068;-55
2023/09/24 05:11:02;;;;;;;9.98;6.65;;;11.10;99.90;;;;;;5014832;28;20037;-56
2023/09/24 05:13:29;;;;;;;9.88;6.20;;;11.00;99.90;;;;;;5009327;28;20548;-56
2023/09/24 05:15:59;;;;;;;9.40;6.25;;;11.20;99.90;;;;;;5012679;28;20116;-57
2023/09/24 05:18:28;;;;;;;10.07;6.20;;;11.10;99.90;;;;;;5012558;28;20045;-56
2023/09/24 05:20:54;;;;;;;10.05;6.57;;;11.00;99.90;;;;;;5010238;28;20758;-55
2023/09/24 05:23:21;;;;;;;11.88;6.47;;;11.00;99.90;;;;;;5012936;28;20504;-57
2023/09/24 05:25:47;;;;;;;9.73;6.15;;;11.00;99.90;;;;;;5013921;28;20081;-55
2023/09/24 05:28:13;;;;;;;9.77;6.50;;;11.10;99.90;;;;;;5008154;28;20069;-56
2023/09/24 05:30:39;;;;;;;12.05;6.47;;;11.00;99.90;;;;;;5011096;28;20041;-56
2023/09/24 05:33:06;;;;;;;11.95;6.63;;;11.00;99.90;;;;;;5012179;28;20657;-55
2023/09/24 05:35:32;;;;;;;11.77;6.65;;;11.10;99.90;;;;;;5015618;28;20120;-57
2023/09/24 05:37:58;;;;;;;9.38;6.05;;;11.00;99.90;;;;;;5009574;28;20045;-56
2023/09/24 05:40:24;;;;;;;9.90;6.47;;;11.00;99.90;;;;;;5011819;28;20128;-56
2023/09/24 05:42:50;;;;;;;10.70;6.20;;;11.00;99.90;;;;;;5009549;28;20098;-56
2023/09/24 05:45:16;;;;;;;10.85;6.47;;;10.90;99.90;;;;;;4996506;28;20041;-56
2023/09/24 05:47:42;;;;;;;11.38;6.18;;;11.00;99.90;;;;;;5012475;28;20473;-56
2023/09/24 05:50:08;;;;;;;11.73;6.47;;;11.00;99.90;;;;;;4996133;28;20051;-57
2023/09/24 05:52:33;;;;;;;9.43;6.35;;;10.90;99.90;;;;;;5010727;28;20075;-56
2023/09/24 05:54:59;;;;;;;8.95;5.90;;;10.90;99.90;;;;;;5009740;28;20134;-56
2023/09/24 05:57:28;;;;;;;12.07;5.88;;;10.90;99.90;;;;;;5011607;28;20037;-56
2023/09/24 05:59:56;;;;;;;8.60;6.10;;;10.90;99.90;;;;;;5011688;28;20041;-56
2023/09/24 06:02:25;;;;;;;12.50;5.75;;;10.90;99.90;;;;;;4995528;28;20111;-55
2023/09/24 06:04:51;;;;;;;12.38;6.20;;;11.00;99.90;;;;;;5011247;28;20037;-55
2023/09/24 06:07:17;;;;;;;8.90;6.10;;;10.80;99.90;;;;;;5016916;28;20045;-56
2023/09/24 06:09:42;;;;;;;12.05;6.07;;;11.00;99.90;;;;;;5000716;28;20807;-57
2023/09/24 06:12:08;;;;;;;8.65;5.60;;;10.90;99.90;;;;;;5007042;28;20079;-56
2023/09/24 06:14:34;;;;;;;11.55;6.13;;;10.90;99.90;;;;;;5007344;28;20124;-56
2023/09/24 06:17:00;;;;;;;15.05;6.38;;;11.00;99.90;;;;;;5007706;28;20045;-55
2023/09/24 06:19:25;;;;;;;14.25;5.88;;;11.00;99.90;;;;;;4991394;28;20559;-57
2023/09/24 06:21:51;;;;;;;17.70;6.15;;;11.00;99.90;;;;;;5006249;28;20080;-55
2023/09/24 06:24:17;;;;;;;9.93;6.15;;;11.00;99.90;;;;;;4984259;28;20046;-57
2023/09/24 06:26:43;;;;;;;10.70;5.95;;;10.90;99.90;;;;;;4977403;28;20041;-57
2023/09/24 06:29:09;;;;;;;11.20;6.10;;;11.00;99.90;;;;;;4998472;28;20046;-56
2023/09/24 06:31:35;;;;;;;11.35;6.03;;;11.00;99.90;;;;;;5022139;28;20050;-57
2023/09/24 06:34:00;;;;;;;10.45;6.43;;;11.00;99.90;;;;;;5008979;28;20045;-57
2023/09/24 06:36:26;;;;;;;10.48;6.00;;;11.00;99.90;;;;;;4998912;28;20064;-55
2023/09/24 06:38:52;;;;;;;9.10;5.68;;;11.10;99.90;;;;;;4995239;28;20168;-56
2023/09/24 06:41:18;;;;;;;9.18;6.30;;;11.10;99.90;;;;;;4995823;28;20187;-55
2023/09/24 06:43:43;;;;;;;9.05;5.90;;;11.10;99.90;;;;;;5008517;28;20076;-56
2023/09/24 06:46:09;;;;;;;13.20;6.78;;;11.20;99.90;;;;;;5009754;28;20053;-57
2023/09/24 06:48:35;;;;;;;12.25;6.70;;;11.20;99.90;;;;;;5003609;28;20041;-56
2023/09/24 06:51:08;;;;;;;10.20;6.28;;;11.30;99.90;;;;;;5011897;28;20550;-56
2023/09/24 06:53:35;;;;;;;13.20;6.40;;;11.30;99.90;;;;;;5012583;28;20484;-56
2023/09/24 06:56:07;;;;;;;13.30;6.30;;;11.30;99.90;;;;;;4994849;28;20049;-56
2023/09/24 06:58:34;;;;;;;15.35;6.78;;;11.40;99.90;;;;;;5011735;28;20030;-57
2023/09/24 07:01:03;;;;;;;12.70;6.55;;;11.40;99.90;;;;;;5006533;28;20049;-57
2023/09/24 07:03:30;;;;;;;12.77;6.15;;;11.50;99.90;;;;;;5008413;28;20052;-56
2023/09/24 07:05:56;;;;;;;10.15;5.97;;;11.50;99.90;;;;;;5012826;28;20065;-57
2023/09/24 07:08:22;;;;;;;13.57;6.05;;;11.50;99.90;;;;;;5012620;28;20425;-57
2023/09/24 07:11:22;;;;;;;12.10;6.10;;;11.60;99.90;;;;;;4990971;28;20052;-55
2023/09/24 07:13:48;;;;;;;12.13;6.13;;;11.70;99.90;;;;;;5011018;28;20043;-56
2023/09/24 07:16:14;;;;;;;11.88;6.55;;;11.70;99.90;;;;;;5012249;28;20449;-56
2023/09/24 07:18:40;;;;;;;12.48;5.75;;;11.80;99.90;;;;;;5012346;28;20132;-56
2023/09/24 07:21:06;;;;;;;13.07;6.32;;;11.80;99.90;;;;;;4998542;28;20457;-56
2023/09/24 07:23:32;;;;;;;13.38;5.75;;;11.90;99.90;;;;;;5011235;28;20072;-57
2023/09/24 07:25:58;;;;;;;14.57;5.47;;;11.90;99.90;;;;;;5010576;28;20053;-56
2023/09/24 07:28:25;;;;;;;11.48;5.75;;;12.00;99.90;;;;;;5012803;28;20053;-57
2023/09/24 07:30:52;;;;;;;9.45;5.43;;;12.00;99.90;;;;;;5010231;28;20116;-55
2023/09/24 07:33:20;;;;;;;10.10;5.45;;;12.10;99.90;;;;;;5012160;28;20426;-57
2023/09/24 07:35:46;;;;;;;8.52;5.50;;;12.10;99.90;;;;;;5015367;28;20146;-56
2023/09/24 07:38:13;;;;;;;11.90;5.50;;;12.20;99.90;;;;;;4992710;28;20154;-57
2023/09/24 07:40:39;;;;;;;11.45;5.82;;;12.30;99.90;;;;;;5012183;28;20231;-56
2023/09/24 07:43:08;;;;;;;11.35;5.72;;;12.30;99.90;;;;;;5011331;28;20069;-56
2023/09/24 07:45:35;;;;;;;12.35;5.90;;;12.40;99.90;;;;;;5012240;28;20112;-55
2023/09/24 07:48:02;;;;;;;11.65;5.43;;;12.40;99.90;;;;;;5014977;28;20393;-56
2023/09/24 07:50:28;;;;;;;9.38;5.47;;;12.50;99.90;;;;;;5014750;28;20194;-56
2023/09/24 07:52:53;;;;;;;12.45;5.38;;;12.60;99.90;;;;;;5014132;28;20468;-56
2023/09/24 07:55:19;;;;;;;10.15;5.30;;;12.70;99.90;;;;;;5013591;28;20037;-57
2023/09/24 07:57:45;;;;;;;11.35;5.00;;;12.80;99.90;;;;;;5015476;28;20524;-56
2023/09/24 08:00:11;;;;;;;10.40;5.20;;;12.90;99.90;;;;;;5012169;28;20374;-56
2023/09/24 08:02:36;;;;;;;9.07;5.20;;;13.00;99.90;;;;;;5015583;28;20506;-57
2023/09/24 08:05:03;;;;;;;10.43;4.80;;;13.10;99.90;;;;;;5013250;28;20045;-57
2023/09/24 08:07:32;;;;;;;9.98;4.82;;;13.20;99.90;;;;;;5014361;28;20456;-56
2023/09/24 08:09:58;;;;;;;10.13;5.28;;;13.30;99.90;;;;;;5017137;28;20052;-57
2023/09/24 08:12:24;;;;;;;7.80;4.75;;;13.40;99.90;;;;;;5013706;28;20048;-57
2023/09/24 08:14:50;;;;;;;9.00;4.53;;;13.50;99.90;;;;;;5015291;28;20320;-57
2023/09/24 08:17:16;;;;;;;12.40;4.60;;;13.60;99.90;;;;;;5013370;28;20121;-56
2023/09/24 08:19:42;;;;;;;11.73;4.97;;;13.70;99.90;;;;;;4999998;28;20071;-57
2023/09/24 08:22:07;;;;;;;9.60;4.82;;;13.70;99.90;;;;;;4982273;28;20052;-56
2023/09/24 08:24:33;;;;;;;11.23;4.70;;;13.80;99.90;;;;;;5013016;28;20401;-57
2023/09/24 08:26:59;;;;;;;11.93;4.97;;;13.90;99.90;;;;;;5017492;28;20115;-57
2023/09/24 08:29:25;;;;;;;9.20;4.68;;;14.00;99.90;;;;;;5013235;28;20056;-57
2023/09/24 08:31:51;;;;;;;11.00;4.72;;;14.10;99.90;;;;;;5015548;28;20079;-57
2023/09/24 08:34:17;;;;;;;9.05;4.50;;;14.20;99.90;;;;;;5014499;28;20045;-56
2023/09/24 08:36:43;;;;;;;8.82;4.15;;;14.30;99.90;;;;;;5015812;28;20041;-57
2023/09/24 08:39:08;;;;;;;7.72;4.22;;;14.40;99.90;;;;;;5015085;28;20048;-58
2023/09/24 08:41:43;;;;;;;7.68;3.80;;;14.40;99.90;;;;;;5016413;28;20061;-56
2023/09/24 08:44:17;;;;;;;9.73;3.70;;;14.50;99.90;;;;;;5010027;28;20623;-57
2023/09/24 08:46:44;;;;;;;10.13;3.97;;;14.60;99.90;;;;;;5014248;28;20423;-55
2023/09/24 08:49:10;;;;;;;9.70;3.97;;;14.70;99.90;;;;;;5015260;28;20109;-57
2023/09/24 08:51:37;;;;;;;12.35;3.72;;;14.80;99.90;;;;;;5002946;28;20317;-57
2023/09/24 08:54:03;;;;;;;8.23;3.60;;;14.90;99.90;;;;;;5016796;28;20037;-58
2023/09/24 08:56:29;;;;;;;7.72;3.25;;;15.00;99.90;;;;;;4996673;28;20042;-57
2023/09/24 08:58:55;;;;;;;7.43;3.63;;;15.10;99.90;;;;;;5014431;28;20048;-57
2023/09/24 09:01:21;;;;;;;10.63;3.30;;;15.30;99.90;;;;;;5012711;28;20489;-57
2023/09/24 09:03:48;;;;;;;7.03;3.33;;;15.40;99.90;;;;;;5005363;28;20104;-57
2023/09/24 09:06:30;;;;;;;6.72;3.22;;;15.50;99.90;;;;;;5012999;28;20686;-57
2023/09/24 09:08:57;;;;;;;11.43;2.97;;;15.60;99.90;;;;;;5013598;28;20042;-57
2023/09/24 09:11:37;;;;;;;11.25;3.25;;;15.70;99.90;;;;;;5011478;28;20481;-57
2023/09/24 09:14:02;;;;;;;7.63;2.88;;;15.80;99.90;;;;;;5000936;28;20041;-57
2023/09/24 09:16:28;;;;;;;7.85;2.80;;;15.90;99.90;;;;;;5008547;28;20445;-56
2023/09/24 09:19:02;;;;;;;7.50;3.38;;;16.00;99.90;;;;;;5026402;28;20045;-56
2023/09/24 09:21:28;;;;;;;8.93;2.90;;;16.10;99.90;;;;;;5009584;28;20049;-56
2023/09/24 09:23:53;;;;;;;5.05;2.63;;;16.20;99.90;;;;;;5011153;28;20613;-58
2023/09/24 09:26:28;;;;;;;8.63;2.72;;;16.30;99.90;;;;;;5009503;28;20041;-58
2023/09/24 09:28:53;;;;;;;6.05;2.75;;;16.30;99.90;;;;;;5009641;28;20401;-58
2023/09/24 09:31:19;;;;;;;6.47;2.50;;;16.40;99.90;;;;;;5011277;28;20440;-57
2023/09/24 09:33:45;;;;;;;8.43;2.70;;;16.50;99.90;;;;;;4995815;28;20064;-58
2023/09/24 09:36:28;;;;;;;8.40;2.78;;;16.70;99.90;;;;;;5012791;28;20115;-58
2023/09/24 09:38:57;;;;;;;8.00;2.45;;;16.80;99.90;;;;;;5013077;28;20560;-57
2023/09/24 09:41:24;;;;;;;7.15;2.97;;;16.80;99.90;;;;;;5008399;28;20535;-57
2023/09/24 09:43:52;;;;;;;6.10;2.70;;;16.90;99.90;;;;;;5020024;28;20251;-58
2023/09/24 09:46:22;;;;;;;6.47;2.78;;;17.00;99.90;;;;;;4996500;28;20473;-58
2023/09/24 09:48:56;;;;;;;6.90;2.83;;;17.10;99.90;;;;;;5009649;28;20046;-58
2023/09/24 09:51:22;;;;;;;7.45;2.53;;;17.20;99.90;;;;;;5011650;28;20052;-57
2023/09/24 09:53:50;;;;;;;4.22;2.05;;;17.40;99.90;;;;;;5008673;28;20479;-57
2023/09/24 09:56:16;;;;;;;7.93;2.33;;;17.50;99.90;;;;;;5012923;28;20036;-58
2023/09/24 09:58:46;;;;;;;4.88;2.10;;;17.60;99.90;;;;;;5009678;28;20128;-56
2023/09/24 10:01:12;;;;;;;7.15;2.70;;;17.60;99.90;;;;;;4996380;28;20167;-57
2023/09/24 10:03:42;;;;;;;5.55;2.10;;;17.60;99.90;;;;;;5012600;28;20172;-57
2023/09/24 10:06:10;;;;;;;7.78;2.42;;;17.70;99.90;;;;;;5016065;28;20045;-57
2023/09/24 10:08:40;;;;;;;8.93;2.28;;;17.70;99.90;;;;;;5011567;28;20111;-57
2023/09/24 10:11:07;;;;;;;6.65;2.40;;;17.80;99.90;;;;;;5007944;28;20045;-58
2023/09/24 10:13:50;;;;;;;8.52;2.20;;;17.90;99.90;;;;;;5011438;28;20034;-58
2023/09/24 10:16:35;;;;;;;5.82;2.08;;;18.00;99.90;;;;;;5014614;28;20037;-58
2023/09/24 10:19:05;;;;;;;5.03;2.42;;;18.10;99.90;;;;;;5015327;28;20108;-58
2023/09/24 10:21:36;;;;;;;5.18;2.08;;;18.30;99.90;;;;;;5013837;28;20041;-57
2023/09/24 10:24:10;;;;;;;8.82;2.30;;;18.50;99.90;;;;;;5013677;28;20052;-57
2023/09/24 10:27:06;;;;;;;7.72;2.80;;;18.60;99.90;;;;;;5013736;28;20398;-59
2023/09/24 10:29:49;;;;;;;8.18;2.38;;;18.60;99.90;;;;;;5011640;28;20872;-58
2023/09/24 10:32:21;;;;;;;8.68;2.45;;;18.70;99.90;;;;;;5013593;28;20037;-57
2023/09/24 10:34:55;;;;;;;5.57;2.03;;;18.70;99.90;;;;;;5011810;28;20056;-57
2023/09/24 10:37:35;;;;;;;8.65;2.25;;;18.70;99.90;;;;;;5015708;28;20512;-57
2023/09/24 10:42:28;;;;;;;5.30;2.33;;;18.80;99.90;;;;;;5011129;28;20506;-58
2023/09/24 10:45:14;;;;;;;4.05;2.08;;;19.00;99.90;;;;;;5010688;28;20053;-58
2023/09/24 10:47:41;;;;;;;6.13;2.35;;;19.10;99.90;;;;;;4992133;28;20389;-56
2023/09/24 10:50:15;;;;;;;5.40;2.13;;;19.10;99.50;;;;;;5007528;28;20057;-56
2023/09/24 10:52:50;;;;;;;9.60;2.38;;;19.10;99.00;;;;;;5005253;28;20147;-58
2023/09/24 10:55:36;;;;;;;5.03;2.00;;;19.10;99.30;;;;;;5013042;28;20034;-58
2023/09/24 10:58:03;;;;;;;5.60;1.90;;;19.30;99.10;;;;;;5009156;28;20781;-58
2023/09/24 11:00:31;;;;;;;8.27;2.20;;;19.40;98.80;;;;;;5010213;28;20045;-59
2023/09/24 11:03:15;;;;;;;4.85;1.98;;;19.60;98.70;;;;;;4991664;28;20056;-58
2023/09/24 11:05:41;;;;;;;6.20;2.75;;;19.70;98.60;;;;;;5010520;28;20042;-59
2023/09/24 11:08:07;;;;;;;7.35;2.42;;;19.80;98.30;;;;;;5011283;28;20041;-58
2023/09/24 11:10:33;;;;;;;9.43;2.80;;;19.90;97.70;;;;;;5010692;28;20056;-58
2023/09/24 11:13:02;;;;;;;9.27;2.35;;;20.00;97.80;;;;;;5010605;28;20038;-59
2023/09/24 11:15:36;;;;;;;6.50;2.20;;;20.10;97.50;;;;;;5011287;28;20382;-58
2023/09/24 11:18:03;;;;;;;5.95;2.15;;;20.10;96.70;;;;;;5012268;28;20046;-58
2023/09/24 11:20:31;;;;;;;3.85;1.73;;;20.20;97.00;;;;;;5014442;28;20579;-58
2023/09/24 11:23:11;;;;;;;6.55;2.28;;;20.20;96.80;;;;;;5016271;28;20386;-58
2023/09/24 11:25:37;;;;;;;5.63;2.10;;;20.30;96.80;;;;;;5016882;28;20053;-58
2023/09/24 11:28:04;;;;;;;6.05;2.10;;;20.30;96.40;;;;;;5030609;28;20113;-58
2023/09/24 11:30:48;;;;;;;4.35;2.10;;;20.30;96.30;;;;;;5017077;28;20041;-59
2023/09/24 11:33:22;;;;;;;5.53;2.05;;;20.20;95.10;;;;;;4998533;28;20038;-58
2023/09/24 11:35:52;;;;;;;5.53;1.80;;;20.20;95.00;;;;;;5016998;28;20041;-58
2023/09/24 11:38:35;;;;;;;6.68;1.95;;;20.20;95.10;;;;;;5005305;28;20104;-59
2023/09/24 11:41:09;;;;;;;3.22;1.65;;;20.20;94.80;;;;;;5013473;28;20042;-58
2023/09/24 11:43:36;;;;;;;10.30;2.08;;;20.30;95.00;;;;;;5014953;28;20137;-57
2023/09/24 11:46:02;;;;;;;6.28;2.13;;;20.40;95.10;;;;;;5016842;28;20099;-58
2023/09/24 11:48:29;;;;;;;7.55;2.25;;;20.50;95.00;;;;;;5012749;28;20084;-58
2023/09/24 11:51:05;;;;;;;3.80;2.00;;;20.60;94.40;;;;;;5012914;28;20037;-58
2023/09/24 11:53:31;;;;;;;4.70;1.70;;;20.70;93.70;;;;;;5013606;28;20477;-58
2023/09/24 11:55:58;;;;;;;5.22;1.90;;;20.70;93.20;;;;;;5000506;28;20037;-58
2023/09/24 11:58:28;;;;;;;7.32;1.70;;;20.60;92.50;;;;;;5005589;28;20037;-58
2023/09/24 12:00:55;;;;;;;5.82;2.30;;;20.70;92.20;;;;;;5011741;28;20132;-58
2023/09/24 12:03:22;;;;;;;6.35;2.00;;;20.60;91.20;;;;;;5014173;28;20494;-57
2023/09/24 12:05:48;;;;;;;10.50;2.00;;;20.60;90.60;;;;;;5013684;28;20124;-58
2023/09/24 12:08:14;;;;;;;3.92;1.70;;;20.60;91.10;;;;;;5013258;28;20053;-57
2023/09/24 12:10:42;;;;;;;7.63;2.05;;;20.60;91.40;;;;;;5012701;28;20416;-59
2023/09/24 12:13:11;;;;;;;3.13;1.55;;;20.60;91.20;;;;;;5007866;28;20112;-58
2023/09/24 12:15:37;;;;;;;3.95;1.83;;;20.60;91.00;;;;;;4997095;28;20038;-58
2023/09/24 12:18:05;;;;;;;3.38;1.80;;;20.60;90.60;;;;;;4998388;28;20104;-58
2023/09/24 12:20:32;;;;;;;5.50;1.90;;;20.70;88.60;;;;;;5009162;28;20108;-57
2023/09/24 12:23:04;;;;;;;7.13;2.10;;;20.80;89.40;;;;;;5012401;28;20069;-58
2023/09/24 12:25:30;;;;;;;5.10;1.95;;;20.90;88.40;;;;;;5012227;28;20045;-58
2023/09/24 12:27:56;;;;;;;4.03;1.90;;;21.10;89.00;;;;;;4996082;28;20037;-58
2023/09/24 12:30:23;;;;;;;4.35;1.63;;;21.30;87.40;;;;;;5028840;28;20375;-58
2023/09/24 12:32:49;;;;;;;4.38;1.80;;;21.40;86.20;;;;;;5013176;28;20079;-58
2023/09/24 12:35:15;;;;;;;3.50;1.60;;;21.50;85.00;;;;;;4999710;28;20037;-58
2023/09/24 12:37:41;;;;;;;10.30;1.98;;;21.60;83.40;;;;;;5012593;28;20041;-58
2023/09/24 12:40:09;;;;;;;4.63;1.63;;;21.70;84.30;;;;;;5008621;28;20056;-58
2023/09/24 12:42:35;;;;;;;4.32;1.45;;;21.90;85.40;;;;;;5001958;28;20072;-58
2023/09/24 12:45:02;;;;;;;9.18;1.73;;;22.10;85.10;;;;;;5009844;28;20052;-58
2023/09/24 12:47:31;;;;;;;4.00;1.58;;;22.20;84.50;;;;;;5011852;28;20525;-59
2023/09/24 12:49:57;;;;;;;5.65;1.80;;;22.30;82.40;;;;;;5016860;28;20107;-57
2023/09/24 12:52:33;;;;;;;3.22;1.50;;;22.20;80.60;;;;;;5016227;28;20044;-58